createdAt,value
2022-10-19T00:02:26.573Z,83.80
2022-10-19T00:04:54.384Z,82.40
2022-10-19T00:07:22.131Z,82.90
2022-10-19T00:09:50.212Z,82.60
2022-10-19T00:12:19.437Z,82.50
2022-10-19T00:14:47.209Z,82.60
2022-10-19T00:17:14.984Z,82.00
2022-10-19T00:19:42.800Z,82.20
2022-10-19T00:22:13.113Z,81.80
2022-10-19T00:24:41.899Z,81.70
2022-10-19T00:27:09.635Z,81.60
2022-10-19T00:29:39.335Z,82.30
2022-10-19T00:32:07.154Z,82.10
2022-10-19T00:34:34.936Z,82.10
2022-10-19T00:37:02.745Z,81.60
2022-10-19T00:39:30.519Z,81.40
2022-10-19T00:41:58.327Z,82.60
2022-10-19T00:45:02.581Z,81.50
2022-10-19T00:47:30.599Z,80.90
2022-10-19T00:49:59.653Z,81.70
2022-10-19T00:52:28.688Z,82.20
2022-10-19T00:54:59.046Z,82.20
2022-10-19T00:57:30.874Z,81.80
2022-10-19T01:00:01.232Z,81.80
2022-10-19T01:02:30.460Z,81.20
2022-10-19T01:04:59.274Z,81.90
2022-10-19T01:07:28.231Z,81.70
2022-10-19T01:09:56.576Z,81.30
2022-10-19T01:12:58.356Z,81.60
2022-10-19T01:15:37.047Z,81.50
2022-10-19T01:18:13.288Z,81.90
2022-10-19T01:21:04.224Z,81.90
2022-10-19T01:23:51.931Z,81.40
2022-10-19T01:26:38.057Z,81.10
2022-10-19T01:29:14.912Z,81.40
2022-10-19T01:31:49.776Z,81.10
2022-10-19T01:34:24.675Z,81.00
2022-10-19T01:37:01.838Z,81.60
2022-10-19T01:39:39.360Z,82.20
2022-10-19T01:42:13.901Z,81.80
2022-10-19T01:44:47.584Z,81.50
2022-10-19T01:47:21.061Z,81.10
2022-10-19T01:49:54.422Z,80.80
2022-10-19T01:52:24.367Z,81.20
2022-10-19T01:54:57.071Z,80.70
2022-10-19T01:57:29.044Z,80.30
2022-10-19T01:59:58.403Z,80.30
2022-10-19T02:02:28.859Z,80.30
2022-10-19T02:04:58.550Z,80.20
2022-10-19T02:07:26.778Z,80.50
2022-10-19T02:09:54.702Z,80.30
2022-10-19T02:12:23.290Z,79.60
2022-10-19T02:14:54.849Z,80.70
2022-10-19T02:17:26.300Z,79.80
2022-10-19T02:19:56.200Z,79.60
2022-10-19T02:22:23.999Z,79.60
2022-10-19T02:24:51.950Z,79.70
2022-10-19T02:27:19.984Z,79.70
2022-10-19T02:29:47.968Z,79.60
2022-10-19T02:32:15.898Z,79.60
2022-10-19T02:34:43.747Z,79.90
2022-10-19T02:37:12.966Z,80.80
2022-10-19T02:39:41.235Z,80.00
2022-10-19T02:42:13.067Z,79.50
2022-10-19T02:44:44.055Z,79.80
2022-10-19T02:47:16.578Z,79.50
2022-10-19T02:49:45.865Z,79.10
2022-10-19T02:52:15.623Z,79.40
2022-10-19T02:54:45.179Z,79.20
2022-10-19T02:57:18.358Z,79.60
2022-10-19T02:59:46.368Z,82.10
2022-10-19T03:02:14.889Z,79.40
2022-10-19T03:04:44.075Z,78.50
2022-10-19T03:07:14.608Z,77.80
2022-10-19T03:09:44.348Z,77.30
2022-10-19T03:12:12.653Z,77.00
2022-10-19T03:14:40.500Z,76.60
2022-10-19T03:17:08.502Z,77.20
2022-10-19T03:19:37.266Z,77.30
2022-10-19T03:22:05.824Z,77.90
2022-10-19T03:24:34.148Z,77.80
2022-10-19T03:27:03.265Z,77.70
2022-10-19T03:29:31.127Z,77.40
2022-10-19T03:31:58.985Z,77.30
2022-10-19T03:34:26.749Z,77.80
2022-10-19T03:36:54.514Z,77.80
2022-10-19T03:39:22.285Z,77.70
2022-10-19T03:41:50.080Z,77.50
2022-10-19T03:44:19.275Z,77.20
2022-10-19T03:46:47.084Z,77.90
2022-10-19T03:49:16.475Z,77.70
2022-10-19T03:51:44.392Z,77.70
2022-10-19T03:54:15.120Z,77.60
2022-10-19T03:56:43.295Z,77.30
2022-10-19T03:59:13.955Z,77.40
2022-10-19T04:01:44.931Z,77.50
2022-10-19T04:04:15.272Z,77.30
2022-10-19T04:06:46.008Z,77.50
2022-10-19T04:09:15.956Z,77.90
2022-10-19T04:11:44.418Z,77.90
2022-10-19T04:14:19.146Z,77.50
2022-10-19T04:16:56.259Z,77.80
2022-10-19T04:19:24.014Z,77.90
2022-10-19T04:21:51.797Z,77.50
2022-10-19T04:24:20.350Z,77.40
2022-10-19T04:26:49.598Z,77.70
2022-10-19T04:29:18.946Z,78.00
2022-10-19T04:31:49.076Z,77.20
2022-10-19T04:34:19.456Z,77.40
2022-10-19T04:36:47.327Z,77.60
2022-10-19T04:39:15.225Z,77.50
2022-10-19T04:41:43.005Z,77.10
2022-10-19T04:44:11.008Z,77.40
2022-10-19T04:46:39.272Z,77.60
2022-10-19T04:49:07.113Z,77.30
2022-10-19T04:51:36.223Z,77.00
2022-10-19T04:54:05.092Z,77.30
2022-10-19T04:56:33.240Z,77.10
2022-10-19T04:59:01.968Z,76.70
2022-10-19T05:01:31.786Z,76.90
2022-10-19T05:04:01.446Z,76.70
2022-10-19T05:06:29.998Z,77.70
2022-10-19T05:08:59.222Z,77.60
2022-10-19T05:11:27.199Z,77.20
2022-10-19T05:13:55.288Z,76.90
2022-10-19T05:16:27.779Z,77.40
2022-10-19T05:18:58.830Z,78.30
2022-10-19T05:21:28.673Z,78.70
2022-10-19T05:23:57.105Z,77.80
2022-10-19T05:26:28.030Z,78.40
2022-10-19T05:28:59.104Z,77.90
2022-10-19T05:31:28.844Z,78.50
2022-10-19T05:33:57.211Z,78.40
2022-10-19T05:36:27.113Z,77.80
2022-10-19T05:38:56.923Z,77.00
2022-10-19T05:41:27.082Z,77.60
2022-10-19T05:43:56.267Z,77.50
2022-10-19T05:46:24.930Z,78.20
2022-10-19T05:48:52.786Z,78.00
2022-10-19T05:51:22.161Z,77.40
2022-10-19T05:53:50.361Z,77.30
2022-10-19T05:56:19.854Z,77.40
2022-10-19T05:58:49.817Z,77.40
2022-10-19T06:01:19.767Z,78.10
2022-10-19T06:03:48.663Z,78.00
2022-10-19T06:06:16.435Z,77.70
2022-10-19T06:08:44.351Z,78.40
2022-10-19T06:11:14.127Z,78.30
2022-10-19T06:13:43.158Z,77.40
2022-10-19T06:16:15.194Z,77.70
2022-10-19T06:18:43.425Z,76.90
2022-10-19T06:21:14.101Z,77.10
2022-10-19T06:26:15.836Z,79.80
2022-10-19T06:28:45.320Z,79.30
2022-10-19T06:31:14.992Z,80.20
2022-10-19T06:33:46.007Z,80.10
2022-10-19T06:36:18.856Z,79.70
2022-10-19T06:38:47.168Z,78.90
2022-10-19T06:41:15.143Z,82.20
2022-10-19T06:43:43.259Z,80.60
2022-10-19T06:46:20.051Z,85.00
2022-10-19T06:48:51.930Z,88.80
2022-10-19T06:51:20.130Z,91.00
2022-10-19T06:53:48.973Z,91.80
2022-10-19T06:56:18.353Z,93.80
2022-10-19T06:58:47.047Z,93.90
2022-10-19T07:01:16.274Z,94.30
2022-10-19T07:03:44.141Z,95.20
2022-10-19T07:06:13.716Z,96.00
2022-10-19T07:08:42.872Z,96.30
2022-10-19T07:11:12.285Z,95.90
2022-10-19T07:13:40.712Z,95.60
2022-10-19T07:16:15.839Z,95.70
2022-10-19T07:18:49.798Z,95.80
2022-10-19T07:21:18.315Z,95.30
2022-10-19T07:23:48.026Z,96.20
2022-10-19T07:26:17.806Z,97.30
2022-10-19T07:28:47.578Z,97.80
2022-10-19T07:31:18.883Z,95.90
2022-10-19T07:33:48.299Z,92.70
2022-10-19T07:36:16.077Z,91.50
2022-10-19T07:38:43.820Z,91.00
2022-10-19T07:41:13.588Z,90.80
2022-10-19T07:43:42.355Z,90.10
2022-10-19T07:46:13.362Z,88.50
2022-10-19T07:48:41.722Z,87.60
2022-10-19T07:51:12.299Z,87.10
2022-10-19T07:53:40.796Z,86.60
2022-10-19T07:56:10.432Z,86.10
2022-10-19T07:58:39.067Z,85.10
2022-10-19T08:01:08.332Z,84.90
2022-10-19T08:06:27.094Z,83.00
2022-10-19T08:08:55.376Z,83.20
2022-10-19T08:11:25.484Z,82.70
2022-10-19T08:13:54.003Z,82.90
2022-10-19T08:16:24.856Z,82.50
2022-10-19T08:18:53.300Z,82.20
2022-10-19T08:21:21.103Z,80.60
2022-10-19T08:23:50.292Z,80.50
2022-10-19T08:26:18.075Z,79.30
2022-10-19T08:28:45.840Z,79.60
2022-10-19T08:31:15.748Z,79.60
2022-10-19T08:33:43.973Z,80.00
2022-10-19T08:36:14.164Z,78.50
2022-10-19T08:38:44.586Z,76.50
2022-10-19T08:41:25.490Z,75.70
2022-10-19T08:44:16.884Z,74.90
2022-10-19T08:46:53.265Z,74.40
2022-10-19T08:49:25.317Z,74.70
2022-10-19T08:51:58.159Z,75.50
2022-10-19T08:54:31.796Z,76.00
2022-10-19T08:57:12.408Z,75.60
2022-10-19T08:59:45.935Z,75.30
2022-10-19T09:02:18.836Z,75.10
2022-10-19T09:04:51.276Z,75.10
2022-10-19T09:07:28.166Z,75.20
2022-10-19T09:09:59.413Z,75.60
2022-10-19T09:12:38.045Z,75.40
2022-10-19T09:15:08.540Z,75.10
2022-10-19T09:17:36.341Z,74.90
2022-10-19T09:20:17.920Z,74.60
2022-10-19T09:22:46.614Z,74.00
2022-10-19T09:25:19.242Z,73.40
2022-10-19T09:30:32.437Z,78.10
2022-10-19T09:33:01.782Z,78.40
2022-10-19T09:35:35.715Z,78.50
2022-10-19T09:38:07.034Z,78.30
2022-10-19T09:40:36.055Z,80.00
2022-10-19T09:43:19.404Z,77.80
2022-10-19T09:45:51.898Z,77.80
2022-10-19T09:48:28.720Z,76.60
2022-10-19T09:50:59.670Z,75.80
2022-10-19T09:53:28.928Z,73.90
2022-10-19T09:56:03.712Z,74.10
2022-10-19T09:58:33.457Z,74.30
2022-10-19T10:01:03.652Z,73.50
2022-10-19T10:03:35.065Z,73.30
2022-10-19T10:06:06.638Z,75.00
2022-10-19T10:08:37.088Z,75.40
2022-10-19T10:11:08.898Z,74.10
2022-10-19T10:13:40.685Z,72.50
2022-10-19T10:16:10.446Z,70.80
2022-10-19T10:18:46.396Z,71.70
2022-10-19T10:21:25.391Z,72.30
2022-10-19T10:24:05.568Z,72.30
2022-10-19T10:26:38.569Z,70.60
2022-10-19T10:29:18.075Z,71.70
2022-10-19T10:31:47.146Z,71.60
2022-10-19T10:34:23.226Z,70.20
2022-10-19T10:37:09.009Z,69.50
2022-10-19T10:39:41.928Z,68.60
2022-10-19T10:42:16.041Z,68.70
2022-10-19T10:44:51.346Z,67.60
2022-10-19T10:47:21.261Z,66.20
2022-10-19T10:49:56.787Z,66.90
2022-10-19T10:52:27.584Z,65.70
2022-10-19T10:55:00.100Z,65.40
2022-10-19T10:57:31.848Z,65.10
2022-10-19T11:00:11.040Z,66.10
2022-10-19T11:02:46.324Z,65.70
2022-10-19T11:05:19.488Z,64.30
2022-10-19T11:07:50.700Z,65.10
2022-10-19T11:10:25.234Z,65.30
2022-10-19T11:13:03.024Z,64.80
2022-10-19T11:15:37.881Z,65.40
2022-10-19T11:18:16.512Z,65.90
2022-10-19T11:20:52.536Z,65.00
2022-10-19T11:23:27.872Z,66.80
2022-10-19T11:26:13.641Z,65.80
2022-10-19T11:28:56.936Z,65.40
2022-10-19T11:31:37.693Z,66.10
2022-10-19T11:34:16.406Z,67.90
2022-10-19T11:36:53.933Z,65.00
2022-10-19T11:39:38.711Z,66.20
2022-10-19T11:42:13.376Z,66.80
2022-10-19T11:44:52.302Z,67.10
2022-10-19T11:47:34.256Z,67.20
2022-10-19T11:50:17.583Z,68.00
2022-10-19T11:52:53.836Z,66.60
2022-10-19T11:55:36.568Z,67.30
2022-10-19T11:58:14.677Z,68.70
2022-10-19T12:00:49.703Z,66.80
2022-10-19T12:03:43.460Z,65.50
2022-10-19T12:06:19.378Z,67.00
2022-10-19T12:09:12.276Z,69.30
2022-10-19T12:11:52.745Z,70.50
2022-10-19T12:14:26.118Z,68.10
2022-10-19T12:16:57.993Z,70.60
2022-10-19T12:19:33.151Z,69.10
2022-10-19T12:22:03.066Z,70.20
2022-10-19T12:24:34.320Z,71.00
2022-10-19T12:27:02.743Z,69.90
2022-10-19T12:29:34.887Z,69.50
2022-10-19T12:32:04.904Z,69.80
2022-10-19T12:34:42.188Z,71.10
2022-10-19T12:37:13.755Z,71.30
2022-10-19T12:39:47.599Z,69.90
2022-10-19T12:42:23.357Z,72.30
2022-10-19T12:45:25.544Z,69.30
2022-10-19T12:48:18.891Z,70.10
2022-10-19T12:51:06.421Z,70.30
2022-10-19T12:53:38.169Z,70.00
2022-10-19T12:56:08.589Z,67.70
2022-10-19T12:58:47.876Z,69.00
2022-10-19T13:01:20.825Z,69.60
2022-10-19T13:03:52.075Z,69.30
2022-10-19T13:06:32.432Z,68.20
2022-10-19T13:09:04.773Z,69.80
2022-10-19T13:14:42.849Z,67.60
2022-10-19T13:17:11.068Z,68.50
2022-10-19T13:19:38.872Z,68.40
2022-10-19T13:22:27.046Z,70.60
2022-10-19T13:25:26.850Z,69.40
2022-10-19T13:27:56.985Z,67.40
2022-10-19T13:31:06.155Z,67.70
2022-10-19T13:33:52.857Z,69.40
2022-10-19T13:36:22.403Z,67.80
2022-10-19T13:39:08.375Z,68.70
2022-10-19T13:41:57.180Z,68.70
2022-10-19T13:44:27.704Z,68.10
2022-10-19T13:47:17.249Z,68.20
2022-10-19T13:50:12.439Z,69.20
2022-10-19T13:52:57.862Z,68.80
2022-10-19T13:55:52.495Z,71.00
2022-10-19T13:58:44.454Z,68.00
2022-10-19T14:01:24.301Z,68.00
2022-10-19T14:04:08.976Z,70.50
2022-10-19T14:06:43.335Z,68.30
2022-10-19T14:09:33.928Z,68.10
2022-10-19T14:12:08.027Z,68.90
2022-10-19T14:14:43.935Z,68.20
2022-10-19T14:19:50.356Z,68.50
2022-10-19T14:22:26.027Z,68.60
2022-10-19T14:25:01.644Z,68.70
2022-10-19T14:27:31.489Z,68.30
2022-10-19T14:29:59.706Z,68.80
2022-10-19T14:32:30.319Z,67.50
2022-10-19T14:35:02.052Z,67.30
2022-10-19T14:37:29.913Z,68.40
2022-10-19T14:40:04.086Z,67.50
2022-10-19T14:42:44.795Z,68.90
2022-10-19T14:45:18.892Z,68.70
2022-10-19T14:48:01.013Z,69.50
2022-10-19T14:50:40.121Z,68.10
2022-10-19T14:53:23.169Z,67.30
2022-10-19T14:55:55.102Z,68.30
2022-10-19T14:58:27.810Z,68.20
2022-10-19T15:00:56.166Z,67.00
2022-10-19T15:03:27.021Z,68.00
2022-10-19T15:05:59.032Z,67.10
2022-10-19T15:08:37.257Z,67.10
2022-10-19T15:11:07.102Z,69.10
2022-10-19T15:13:41.243Z,67.90
2022-10-19T15:16:30.807Z,69.90
2022-10-19T15:19:04.164Z,69.40
2022-10-19T15:21:33.544Z,69.10
2022-10-19T15:24:09.649Z,68.50
2022-10-19T15:26:37.999Z,69.60
2022-10-19T15:29:12.835Z,69.70
2022-10-19T15:31:40.607Z,69.50
2022-10-19T15:34:24.209Z,69.20
2022-10-19T15:36:56.684Z,70.00
2022-10-19T15:39:38.969Z,69.70
2022-10-19T15:42:23.978Z,69.90
2022-10-19T15:44:53.078Z,70.20
2022-10-19T15:47:24.144Z,70.00
2022-10-19T15:49:55.517Z,70.30
2022-10-19T15:52:24.960Z,69.30
2022-10-19T15:54:54.302Z,70.00
2022-10-19T15:57:29.428Z,70.50
2022-10-19T16:00:02.045Z,70.60
2022-10-19T16:02:31.986Z,70.50
2022-10-19T16:04:59.818Z,70.20
2022-10-19T16:07:31.416Z,70.30
2022-10-19T16:09:59.476Z,70.80
2022-10-19T16:12:27.609Z,70.50
2022-10-19T16:14:55.756Z,70.70
2022-10-19T16:17:25.126Z,71.10
2022-10-19T16:19:52.918Z,72.10
2022-10-19T16:22:20.691Z,73.50
2022-10-19T16:24:48.476Z,73.90
2022-10-19T16:27:16.928Z,74.40
2022-10-19T16:29:45.460Z,74.00
2022-10-19T16:32:13.247Z,73.40
2022-10-19T16:34:42.347Z,74.00
2022-10-19T16:37:10.132Z,73.80
2022-10-19T16:39:37.900Z,74.80
2022-10-19T16:42:05.774Z,74.70
2022-10-19T16:44:33.534Z,74.70
2022-10-19T16:47:01.338Z,74.50
2022-10-19T16:49:29.226Z,74.60
2022-10-19T16:51:58.664Z,74.60
2022-10-19T16:54:27.086Z,74.20
2022-10-19T16:56:55.483Z,74.50
2022-10-19T16:59:23.335Z,73.90
2022-10-19T17:01:51.425Z,75.20
2022-10-19T17:04:19.212Z,75.30
2022-10-19T17:06:47.068Z,74.90
2022-10-19T17:12:07.379Z,74.10
2022-10-19T17:14:35.978Z,74.30
2022-10-19T17:17:03.942Z,74.20
2022-10-19T17:19:31.736Z,74.30
2022-10-19T17:22:01.741Z,74.30
2022-10-19T17:24:31.498Z,74.30
2022-10-19T17:27:02.709Z,74.30
2022-10-19T17:29:30.540Z,74.50
2022-10-19T17:31:58.796Z,74.10
2022-10-19T17:34:27.216Z,74.90
2022-10-19T17:36:55.404Z,74.40
2022-10-19T17:39:28.947Z,74.40
2022-10-19T17:42:01.823Z,74.50
2022-10-19T17:44:31.160Z,74.90
2022-10-19T17:46:59.241Z,74.60
2022-10-19T17:49:27.009Z,74.80
2022-10-19T17:51:54.797Z,74.90
2022-10-19T17:54:22.671Z,75.10
2022-10-19T17:56:50.472Z,75.10
2022-10-19T17:59:30.094Z,74.30
2022-10-19T18:02:03.145Z,75.00
2022-10-19T18:04:30.980Z,75.70
2022-10-19T18:06:58.802Z,75.80
2022-10-19T18:09:26.578Z,75.50
2022-10-19T18:11:54.347Z,75.40
2022-10-19T18:14:23.527Z,76.00
2022-10-19T18:16:51.967Z,75.50
2022-10-19T18:19:19.736Z,75.40
2022-10-19T18:21:49.027Z,75.00
2022-10-19T18:24:19.830Z,74.50
2022-10-19T18:26:48.833Z,74.90
2022-10-19T18:29:18.838Z,74.90
2022-10-19T18:31:51.228Z,75.10
2022-10-19T18:34:21.373Z,74.70
2022-10-19T18:36:49.954Z,74.60
2022-10-19T18:39:17.730Z,74.10
2022-10-19T18:41:45.773Z,74.50
2022-10-19T18:44:14.938Z,74.80
2022-10-19T18:46:42.906Z,74.40
2022-10-19T18:49:13.419Z,73.90
2022-10-19T18:51:41.239Z,74.30
2022-10-19T18:54:09.263Z,74.30
2022-10-19T18:56:37.342Z,73.70
2022-10-19T18:59:05.906Z,75.30
2022-10-19T19:01:34.073Z,75.50
2022-10-19T19:04:08.562Z,74.60
2022-10-19T19:06:39.078Z,74.20
2022-10-19T19:09:10.344Z,74.50
2022-10-19T19:11:40.664Z,74.50
2022-10-19T19:14:12.353Z,74.60
2022-10-19T19:16:41.603Z,73.90
2022-10-19T19:19:11.398Z,73.90
2022-10-19T19:21:43.710Z,74.10
2022-10-19T19:24:13.682Z,73.50
2022-10-19T19:26:43.427Z,73.70
2022-10-19T19:29:11.419Z,73.50
2022-10-19T19:31:39.507Z,74.20
2022-10-19T19:34:09.214Z,74.10
2022-10-19T19:36:37.854Z,74.50
2022-10-19T19:39:06.998Z,74.50
2022-10-19T19:41:34.767Z,74.20
2022-10-19T19:44:02.533Z,73.50
2022-10-19T19:46:30.500Z,74.80
2022-10-19T19:49:03.004Z,75.10
2022-10-19T19:51:32.723Z,74.60
2022-10-19T19:54:01.090Z,74.10
2022-10-19T19:56:30.244Z,74.50
2022-10-19T19:59:00.060Z,74.30
2022-10-19T20:01:27.931Z,74.30
2022-10-19T20:03:58.082Z,74.40
2022-10-19T20:06:26.218Z,74.00
2022-10-19T20:08:54.701Z,74.20
2022-10-19T20:11:23.026Z,74.50
2022-10-19T20:13:52.499Z,74.80
2022-10-19T20:16:25.175Z,74.80
2022-10-19T20:19:00.348Z,75.20
2022-10-19T20:21:28.327Z,74.40
2022-10-19T20:23:56.096Z,73.80
2022-10-19T20:26:25.567Z,74.00
2022-10-19T20:28:54.860Z,75.30
2022-10-19T20:31:23.250Z,74.00
2022-10-19T20:33:51.246Z,74.90
2022-10-19T20:36:21.635Z,74.90
2022-10-19T20:38:50.720Z,74.90
2022-10-19T20:41:19.843Z,74.50
2022-10-19T20:43:48.280Z,74.20
2022-10-19T20:46:20.908Z,75.10
2022-10-19T20:48:50.943Z,75.40
2022-10-19T20:51:21.089Z,75.60
2022-10-19T20:53:51.049Z,74.10
2022-10-19T20:56:21.444Z,74.60
2022-10-19T20:58:50.413Z,73.30
2022-10-19T21:01:20.089Z,73.40
2022-10-19T21:03:48.576Z,74.80
2022-10-19T21:06:16.744Z,73.50
2022-10-19T21:08:44.629Z,74.00
2022-10-19T21:11:14.072Z,74.60
2022-10-19T21:13:42.081Z,74.40
2022-10-19T21:16:11.327Z,74.40
2022-10-19T21:18:41.058Z,74.50
2022-10-19T21:21:17.972Z,75.50
2022-10-19T21:23:47.505Z,75.50
2022-10-19T21:26:15.543Z,75.50
2022-10-19T21:28:48.049Z,74.50
2022-10-19T21:31:16.827Z,73.80
2022-10-19T21:33:46.363Z,74.60
2022-10-19T21:36:15.655Z,74.30
2022-10-19T21:38:43.648Z,74.60
2022-10-19T21:41:14.122Z,74.10
2022-10-19T21:43:42.024Z,74.90
2022-10-19T21:46:12.880Z,74.50
2022-10-19T21:48:40.842Z,75.60
2022-10-19T21:51:21.556Z,74.20
2022-10-19T21:53:49.438Z,75.40
2022-10-19T21:56:17.652Z,75.40
2022-10-19T21:58:46.415Z,74.30
2022-10-19T22:01:14.294Z,74.90
2022-10-19T22:03:42.216Z,74.90
2022-10-19T22:06:10.372Z,74.60
2022-10-19T22:08:40.352Z,75.10
2022-10-19T22:11:09.567Z,75.30
2022-10-19T22:13:37.827Z,75.10
2022-10-19T22:16:06.653Z,75.00
2022-10-19T22:18:34.867Z,75.00
2022-10-19T22:21:04.860Z,75.40
2022-10-19T22:23:32.691Z,75.60
2022-10-19T22:26:01.962Z,76.20
2022-10-19T22:28:29.747Z,75.90
2022-10-19T22:30:59.394Z,75.00
2022-10-19T22:33:27.190Z,74.50
2022-10-19T22:35:56.043Z,74.30
2022-10-19T22:38:24.075Z,74.80
2022-10-19T22:40:51.890Z,74.90
2022-10-19T22:43:21.076Z,73.90
2022-10-19T22:45:48.924Z,74.00
2022-10-19T22:48:17.783Z,73.60
2022-10-19T22:50:46.023Z,73.50
2022-10-19T22:53:14.395Z,73.50
2022-10-19T22:55:42.192Z,73.80
2022-10-19T23:00:44.344Z,72.80
2022-10-19T23:03:12.480Z,73.70
2022-10-19T23:05:40.291Z,74.00
2022-10-19T23:08:08.093Z,72.60
2022-10-19T23:10:35.887Z,74.00
2022-10-19T23:13:03.719Z,74.10
2022-10-19T23:15:31.529Z,73.50
2022-10-19T23:18:00.663Z,72.70
2022-10-19T23:20:28.474Z,73.50
2022-10-19T23:22:56.287Z,74.20
2022-10-19T23:25:24.095Z,75.00
2022-10-19T23:27:51.939Z,74.00
2022-10-19T23:30:19.752Z,74.90
2022-10-19T23:32:47.589Z,74.80
2022-10-19T23:35:17.432Z,75.20
2022-10-19T23:37:45.223Z,74.40
2022-10-19T23:40:13.372Z,75.20
2022-10-19T23:42:41.280Z,75.10
2022-10-19T23:45:09.671Z,74.20
2022-10-19T23:47:37.653Z,73.70
2022-10-19T23:50:06.215Z,74.90
2022-10-19T23:52:35.369Z,74.80
2022-10-19T23:55:03.178Z,75.20
2022-10-19T23:57:30.996Z,75.10
2022-10-19T23:59:58.757Z,74.60
